Weather History for Sturgeon Bay, WI

Change the Weather History Date:

Sunday, March 17, 2013

  Actual Average Record
Temperature  
Mean Temperature 16 °F -  
Max Temperature 26 °F 39 °F 68 °F (2012)
Min Temperature 8 °F 20 °F -11 °F (1916)
Degree Days  
Heating Degree Days 49    
Moisture  
Dew Point 7 °F    
Average Humidity 63    
Maximum Humidity 86    
Minimum Humidity 49    
Precipitation  
Precipitation 0.00 in - - ()
Sea Level Pressure  
Sea Level Pressure 30.21 in    
Wind  
Wind Speed 11 mph (NE)    
Max Wind Speed 18 mph    
Max Gust Speed 24 mph    
Visibility 10 miles    
Events      
Averages and records for this station are not official NWS values.
T = Trace of Precipitation, MM = Missing Value Source: NWS Daily Summary

Daily Weather History Graph

Daily Weather History Graph

Search for Another Location

Airport:

Trip Planner

Search our weather history database for the weather conditions in past years. The results will help you decide how hot, cold, wet, or windy it might be!

Date:

Astronomy

Mar. 17, 2013 Rise Set
Actual Time 6:57 AM CDT 6:58 PM CDT
Civil Twilight 6:28 AM CDT 7:27 PM CDT
Nautical Twilight 5:54 AM CDT 8:02 PM CDT
Astronomical Twilight 5:19 AM CDT 8:37 PM CDT
Moon 9:56 AM CDT (3/17) 12:19 AM CDT (3/17)
Length of Visible Light 12h 59m
Length of Day
12h 00m
Waxing Crescent, 31% of the Moon is Illuminated
Mar 17
Waxing Crescent
Mar 19
First Quarter
Mar 27
Full
Apr 2
Last Quarter
Apr 10
New

Hourly Weather History & Observations

Time (CDT) Temp. Windchill Dew Point Humidity Pressure Visibility Wind Dir Wind Speed Gust Speed Precip Events Conditions
12:15 AM 21.2 °F 7.8 °F 12.2 °F 68% 30.09 in 10.0 mi NNW 15.0 mph 21.9 mph N/A   Overcast
12:35 AM 21.2 °F 7.3 °F 10.4 °F 63% 30.09 in 10.0 mi NNW 16.1 mph - N/A   Overcast
12:55 AM 21.2 °F 8.9 °F 6.8 °F 54% 30.10 in 10.0 mi NNW 12.7 mph 19.6 mph N/A   Mostly Cloudy
1:15 AM 19.4 °F 6.0 °F 6.8 °F 58% 30.11 in 10.0 mi NNW 13.8 mph - N/A   Clear
1:35 AM 19.4 °F 5.0 °F 6.8 °F 58% 30.13 in 10.0 mi NNW 16.1 mph 19.6 mph N/A   Clear
1:55 AM 19.4 °F 5.0 °F 5.0 °F 54% 30.15 in 10.0 mi North 16.1 mph - N/A   Clear
2:15 AM 17.6 °F 2.2 °F 8.6 °F 68% 30.17 in 10.0 mi North 17.3 mph - N/A   Scattered Clouds
2:35 AM 17.6 °F 3.2 °F 8.6 °F 68% 30.18 in 10.0 mi North 15.0 mph - N/A   Overcast
2:55 AM 17.6 °F 2.7 °F 6.8 °F 63% 30.19 in 10.0 mi North 16.1 mph 20.7 mph N/A   Overcast
3:15 AM 17.6 °F 3.7 °F 1.4 °F 49% 30.19 in 10.0 mi North 13.8 mph - N/A   Overcast
3:35 AM 15.8 °F 1.4 °F 1.4 °F 53% 30.20 in 10.0 mi North 13.8 mph - N/A   Scattered Clouds
3:55 AM 15.8 °F 2.1 °F 3.2 °F 58% 30.21 in 10.0 mi North 12.7 mph - N/A   Clear
4:15 AM 14.0 °F -2.0 °F 3.2 °F 62% 30.21 in 10.0 mi NNE 16.1 mph - N/A   Mostly Cloudy
4:35 AM 12.2 °F -5.3 °F -0.4 °F 57% 30.21 in 10.0 mi North 18.4 mph 23.0 mph N/A   Mostly Cloudy
4:55 AM 12.2 °F -4.8 °F -0.4 °F 57% 30.22 in 10.0 mi North 17.3 mph 24.2 mph N/A   Scattered Clouds
5:15 AM 12.2 °F -4.8 °F -2.2 °F 53% 30.22 in 10.0 mi North 17.3 mph 20.7 mph N/A   Clear
5:35 AM 10.4 °F -4.8 °F -0.4 °F 62% 30.23 in 10.0 mi North 12.7 mph - N/A   Clear
5:55 AM 10.4 °F -5.4 °F -0.4 °F 62% 30.23 in 10.0 mi North 13.8 mph - N/A   Clear
6:15 AM 10.4 °F -5.4 °F -2.2 °F 57% 30.24 in 10.0 mi North 13.8 mph 19.6 mph N/A   Clear
6:35 AM 10.4 °F -6.0 °F -0.4 °F 62% 30.24 in 10.0 mi North 15.0 mph - N/A   Clear
6:55 AM 10.4 °F -4.8 °F -0.4 °F 62% 30.24 in 10.0 mi North 12.7 mph - N/A   Clear
7:15 AM 8.6 °F -6.3 °F -2.2 °F 62% 30.25 in 10.0 mi North 11.5 mph - N/A   Clear
7:35 AM 8.6 °F -5.5 °F -2.2 °F 62% 30.25 in 10.0 mi North 10.4 mph - N/A   Clear
7:55 AM 8.6 °F -6.3 °F -2.2 °F 62% 30.25 in 10.0 mi North 11.5 mph - N/A   Clear
8:15 AM 10.4 °F -4.1 °F -2.2 °F 57% 30.25 in 10.0 mi North 11.5 mph - N/A   Clear
8:35 AM 10.4 °F -4.1 °F -0.4 °F 62% 30.26 in 10.0 mi North 11.5 mph - N/A   Clear
8:55 AM 10.4 °F -3.3 °F -0.4 °F 62% 30.26 in 10.0 mi North 10.4 mph - N/A   Clear
9:15 AM 12.2 °F -1.0 °F 1.4 °F 62% 30.27 in 10.0 mi North 10.4 mph - N/A   Clear
9:35 AM 12.2 °F -0.2 °F 1.4 °F 62% 30.28 in 10.0 mi North 9.2 mph - N/A   Clear
9:55 AM 12.2 °F -0.2 °F 1.4 °F 62% 30.29 in 10.0 mi North 9.2 mph - N/A   Mostly Cloudy
10:15 AM 14.0 °F 1.2 °F 3.2 °F 62% 30.30 in 10.0 mi North 10.4 mph - N/A   Overcast
10:35 AM 14.0 °F 5.1 °F 6.8 °F 73% 30.30 in 10.0 mi NNW 5.8 mph - N/A   Overcast
10:55 AM 15.8 °F 6.1 °F 5.0 °F 62% 30.30 in 10.0 mi North 6.9 mph - N/A   Overcast
11:15 AM 17.6 °F 7.3 °F 6.8 °F 63% 30.30 in 10.0 mi North 8.1 mph - N/A   Overcast
11:35 AM 17.6 °F 9.3 °F 6.8 °F 63% 30.30 in 10.0 mi North 5.8 mph - N/A   Overcast
11:55 AM 19.4 °F 10.4 °F 8.6 °F 63% 30.30 in 10.0 mi NNE 6.9 mph - N/A   Overcast
12:15 PM 19.4 °F 12.8 °F 8.6 °F 63% 30.30 in 10.0 mi NNE 4.6 mph - N/A   Overcast
12:35 PM 21.2 °F 12.6 °F 8.6 °F 58% 30.29 in 10.0 mi NNE 6.9 mph - N/A   Overcast
12:55 PM 21.2 °F 12.6 °F 10.4 °F 63% 30.28 in 10.0 mi East 6.9 mph - N/A   Overcast
1:15 PM 21.2 °F 10.9 °F 10.4 °F 63% 30.27 in 10.0 mi ESE 9.2 mph - N/A   Overcast
1:35 PM 21.2 °F 10.9 °F 10.4 °F 63% 30.26 in 10.0 mi East 9.2 mph - N/A   Overcast
1:55 PM 21.2 °F 10.9 °F 10.4 °F 63% 30.25 in 10.0 mi East 9.2 mph - N/A   Overcast
2:15 PM 21.2 °F 12.6 °F 12.2 °F 68% 30.25 in 10.0 mi East 6.9 mph - N/A   Overcast
2:35 PM 23.0 °F 14.7 °F 10.4 °F 59% 30.25 in 10.0 mi NE 6.9 mph - N/A   Overcast
2:55 PM 24.8 °F 17.9 °F 10.4 °F 54% 30.24 in 10.0 mi East 5.8 mph - N/A   Overcast
3:15 PM 23.0 °F 14.7 °F 10.4 °F 59% 30.24 in 10.0 mi East 6.9 mph - N/A   Overcast
3:35 PM 23.0 °F 18.4 °F 10.4 °F 59% 30.23 in 10.0 mi ENE 3.5 mph - N/A   Overcast
3:55 PM 23.0 °F 14.7 °F 10.4 °F 59% 30.22 in 10.0 mi East 6.9 mph - N/A   Overcast
4:15 PM 23.0 °F 14.7 °F 10.4 °F 59% 30.21 in 10.0 mi East 6.9 mph - N/A   Partly Cloudy
4:35 PM 23.0 °F 17.0 °F 10.4 °F 59% 30.21 in 10.0 mi East 4.6 mph - N/A   Clear
4:55 PM 23.0 °F 14.7 °F 8.6 °F 54% 30.21 in 10.0 mi East 6.9 mph - N/A   Clear
5:15 PM 23.0 °F 18.4 °F 10.4 °F 59% 30.22 in 10.0 mi East 3.5 mph - N/A   Clear
5:35 PM 23.0 °F 14.7 °F 10.4 °F 59% 30.21 in 10.0 mi East 6.9 mph - N/A   Clear
5:55 PM 23.0 °F 14.7 °F 10.4 °F 59% 30.20 in 10.0 mi East 6.9 mph - N/A   Clear
6:15 PM 21.2 °F 12.6 °F 10.4 °F 63% 30.19 in 10.0 mi East 6.9 mph - N/A   Clear
6:55 PM 21.2 °F 14.9 °F 10.4 °F 63% 30.17 in 10.0 mi East 4.6 mph - N/A   Clear
7:15 PM 21.2 °F 14.9 °F 10.4 °F 63% 30.16 in 10.0 mi ENE 4.6 mph - N/A   Clear
7:35 PM 21.2 °F 16.4 °F 10.4 °F 63% 30.16 in 10.0 mi ENE 3.5 mph - N/A   Clear
7:55 PM 19.4 °F 14.3 °F 10.4 °F 68% 30.16 in 10.0 mi ENE 3.5 mph - N/A   Clear
8:15 PM 19.4 °F 14.3 °F 10.4 °F 68% 30.15 in 10.0 mi East 3.5 mph - N/A   Clear
8:35 PM 19.4 °F 14.3 °F 12.2 °F 74% 30.15 in 10.0 mi East 3.5 mph - N/A   Clear
8:55 PM 19.4 °F 14.3 °F 12.2 °F 74% 30.15 in 10.0 mi ENE 3.5 mph - N/A   Clear
9:15 PM 19.4 °F 14.3 °F 12.2 °F 74% 30.15 in 10.0 mi ENE 3.5 mph - N/A   Clear
9:35 PM 19.4 °F 14.3 °F 12.2 °F 74% 30.14 in 10.0 mi ENE 3.5 mph - N/A   Clear
9:55 PM 19.4 °F 12.8 °F 12.2 °F 74% 30.13 in 10.0 mi NE 4.6 mph - N/A   Clear
10:15 PM 19.4 °F 12.8 °F 12.2 °F 74% 30.12 in 10.0 mi NE 4.6 mph - N/A   Clear
10:35 PM 19.4 °F 12.8 °F 14.0 °F 80% 30.12 in 10.0 mi NNE 4.6 mph - N/A   Clear
10:55 PM 17.6 °F - 10.4 °F 73% 30.11 in 10.0 mi Calm Calm - N/A   Clear
11:15 PM 15.8 °F - 12.2 °F 86% 30.10 in 10.0 mi Calm Calm - N/A   Clear
11:35 PM 15.8 °F 8.6 °F 12.2 °F 86% 30.09 in 10.0 mi ESE 4.6 mph - N/A   Clear
11:55 PM 23.0 °F 13.9 °F 17.6 °F 80% 30.08 in 10.0 mi SE 8.1 mph - N/A   Clear